Time;durP1;ratioP1;P1;durP2;ratioP2;P2;SDS_P1;SDS_P2;PMS_P1;PMS_P2;Temp;Humidity;BMP_temperature;BMP_pressure;BME280_temperature;BME280_humidity;BME280_pressure;Samples;Min_cycle;Max_cycle;Signal;HPM_P1;HPM_P2
2023/02/24 00:01:42;;;;;;;67.87;46.70;;;8.20;95.50;;;;;;6244675;23;20079;-67
2023/02/24 00:04:11;;;;;;;60.40;44.33;;;8.10;95.30;;;;;;6244742;23;20482;-67
2023/02/24 00:06:39;;;;;;;67.63;45.07;;;8.10;95.50;;;;;;6245208;23;20308;-67
2023/02/24 00:09:08;;;;;;;63.27;43.37;;;8.10;95.50;;;;;;6245000;23;20073;-67
2023/02/24 00:11:39;;;;;;;65.10;44.17;;;8.10;95.60;;;;;;6244963;23;20004;-67
2023/02/24 00:14:06;;;;;;;62.60;44.07;;;8.00;95.60;;;;;;6245080;23;19996;-67
2023/02/24 00:16:33;;;;;;;61.97;44.63;;;8.00;95.60;;;;;;6244772;23;20083;-69
2023/02/24 00:18:59;;;;;;;66.00;45.07;;;8.00;95.60;;;;;;6244798;23;20000;-67
2023/02/24 00:21:27;;;;;;;62.27;43.23;;;7.90;95.60;;;;;;6244788;23;20008;-67
2023/02/24 00:23:53;;;;;;;63.77;43.87;;;7.90;95.40;;;;;;6244611;23;20445;-67
2023/02/24 00:26:19;;;;;;;60.03;43.00;;;7.90;95.30;;;;;;6244874;23;20000;-67
2023/02/24 00:28:45;;;;;;;68.80;44.50;;;7.90;95.30;;;;;;6244637;23;20000;-67
2023/02/24 00:31:15;;;;;;;59.00;41.97;;;7.80;95.20;;;;;;6246062;23;20010;-67
2023/02/24 00:33:42;;;;;;;54.00;37.57;;;7.80;95.10;;;;;;6246451;23;20075;-67
2023/02/24 00:36:14;;;;;;;48.00;35.67;;;7.80;95.10;;;;;;6246740;23;20012;-67
2023/02/24 00:38:45;;;;;;;51.85;36.72;;;7.70;95.10;;;;;;6246342;23;20007;-67
2023/02/24 00:41:14;;;;;;;53.60;35.43;;;7.70;95.00;;;;;;6246713;23;20023;-67
2023/02/24 00:43:50;;;;;;;49.10;34.80;;;7.70;95.10;;;;;;6246801;23;20031;-66
2023/02/24 00:46:20;;;;;;;50.70;37.30;;;7.60;95.10;;;;;;6246339;23;20001;-68
2023/02/24 00:48:48;;;;;;;55.47;38.53;;;7.50;95.20;;;;;;6219440;23;20024;-67
2023/02/24 00:51:16;;;;;;;49.07;35.63;;;7.50;95.20;;;;;;6246591;23;20042;-67
2023/02/24 00:53:43;;;;;;;53.27;38.57;;;7.50;95.20;;;;;;6246343;23;20031;-67
2023/02/24 00:56:15;;;;;;;55.53;38.00;;;7.50;95.30;;;;;;6246455;23;19997;-67
2023/02/24 00:58:43;;;;;;;49.13;35.27;;;7.50;95.40;;;;;;6246716;23;20004;-68
2023/02/24 01:01:18;;;;;;;47.97;35.63;;;7.50;95.50;;;;;;6246427;23;20003;-67
2023/02/24 01:03:45;;;;;;;52.60;38.40;;;7.50;95.50;;;;;;6246319;23;20004;-67
2023/02/24 01:06:11;;;;;;;60.20;40.20;;;7.50;95.50;;;;;;6246592;23;20027;-67
2023/02/24 01:08:39;;;;;;;59.57;40.03;;;7.50;95.60;;;;;;6246377;23;20370;-67
2023/02/24 01:13:49;;;;;;;66.70;43.23;;;7.50;95.80;;;;;;6246421;23;20504;-67
2023/02/24 01:16:17;;;;;;;60.53;43.20;;;7.50;95.70;;;;;;6246260;23;20000;-66
2023/02/24 01:18:49;;;;;;;64.47;44.03;;;7.50;95.80;;;;;;6246508;23;20494;-66
2023/02/24 01:21:16;;;;;;;65.32;43.90;;;7.50;95.90;;;;;;6246601;23;20024;-66
2023/02/24 01:23:46;;;;;;;62.93;43.23;;;7.50;96.00;;;;;;6246198;23;20011;-67
2023/02/24 01:26:11;;;;;;;61.13;41.53;;;7.50;96.00;;;;;;6246187;23;20312;-67
2023/02/24 01:28:37;;;;;;;62.10;40.50;;;7.50;96.20;;;;;;6246235;23;20008;-67
2023/02/24 01:31:05;;;;;;;62.43;42.60;;;7.50;96.00;;;;;;6246334;23;20050;-66
2023/02/24 01:33:38;;;;;;;61.10;42.93;;;7.50;95.90;;;;;;6246178;23;20012;-67
2023/02/24 01:36:17;;;;;;;61.80;42.33;;;7.50;95.90;;;;;;6246316;23;19996;-67
2023/02/24 01:38:44;;;;;;;65.87;42.53;;;7.50;95.90;;;;;;6246373;23;20008;-67
2023/02/24 01:41:26;;;;;;;67.30;42.73;;;7.50;95.90;;;;;;6246165;23;19997;-67
2023/02/24 01:43:57;;;;;;;62.83;42.45;;;7.40;95.90;;;;;;6246303;23;20000;-66
2023/02/24 01:46:28;;;;;;;65.63;43.13;;;7.40;96.00;;;;;;6246519;23;20141;-67
2023/02/24 01:48:59;;;;;;;63.83;41.70;;;7.40;96.10;;;;;;6245943;23;20008;-67
2023/02/24 01:51:29;;;;;;;61.80;41.00;;;7.40;96.10;;;;;;6246138;23;20012;-67
2023/02/24 01:53:55;;;;;;;60.90;41.53;;;7.40;96.10;;;;;;6246095;23;20399;-67
2023/02/24 01:56:21;;;;;;;64.67;42.17;;;7.40;96.10;;;;;;6246048;23;20010;-67
2023/02/24 01:58:48;;;;;;;65.60;41.63;;;7.40;96.20;;;;;;6243197;23;20000;-67
2023/02/24 02:01:15;;;;;;;59.43;39.70;;;7.30;96.10;;;;;;6242789;23;20008;-67
2023/02/24 02:03:43;;;;;;;59.70;40.47;;;7.30;96.10;;;;;;6242811;23;20427;-68
2023/02/24 02:06:11;;;;;;;58.17;40.03;;;7.30;96.00;;;;;;6246059;23;20154;-67
2023/02/24 02:08:39;;;;;;;63.57;41.57;;;7.30;95.90;;;;;;6219178;23;20331;-67
2023/02/24 02:11:09;;;;;;;61.90;42.63;;;7.30;95.90;;;;;;6245956;23;20000;-67
2023/02/24 02:13:38;;;;;;;66.80;42.50;;;7.30;96.00;;;;;;6245335;23;20063;-67
2023/02/24 02:16:28;;;;;;;62.30;41.90;;;7.30;96.10;;;;;;6245500;23;20004;-66
2023/02/24 02:19:18;;;;;;;62.73;41.70;;;7.20;96.20;;;;;;6245528;23;20369;-67
2023/02/24 02:21:59;;;;;;;62.77;40.83;;;7.20;96.20;;;;;;6245218;23;20442;-67
2023/02/24 02:24:44;;;;;;;64.03;40.33;;;7.20;96.10;;;;;;6245517;23;20338;-67
2023/02/24 02:27:40;;;;;;;69.33;41.33;;;7.20;96.10;;;;;;6246001;23;20000;-68
2023/02/24 02:30:33;;;;;;;59.00;39.90;;;7.20;96.10;;;;;;6245605;23;20008;-68
2023/02/24 02:33:03;;;;;;;66.20;40.83;;;7.20;96.20;;;;;;6245507;23;20427;-67
2023/02/24 02:35:45;;;;;;;62.37;39.60;;;7.20;96.20;;;;;;6245425;23;19996;-68
2023/02/24 02:38:11;;;;;;;61.77;41.40;;;7.10;96.20;;;;;;6245442;23;20004;-68
2023/02/24 02:40:44;;;;;;;60.90;39.17;;;7.10;96.40;;;;;;6245107;23;20431;-67
2023/02/24 02:43:10;;;;;;;;;;;7.10;96.40;;;;;;6246115;23;20004;-67
2023/02/24 02:45:46;;;;;;;62.33;40.80;;;7.10;96.30;;;;;;6245666;23;20464;-67
2023/02/24 02:48:33;;;;;;;61.67;37.93;;;7.10;96.20;;;;;;6245255;23;20020;-67
2023/02/24 02:51:16;;;;;;;58.70;39.87;;;7.10;96.20;;;;;;6245622;23;20005;-68
2023/02/24 02:53:46;;;;;;;60.75;37.90;;;7.10;96.10;;;;;;6245697;23;20034;-67
2023/02/24 02:56:17;;;;;;;60.20;39.30;;;7.10;96.10;;;;;;6245671;23;20419;-67
2023/02/24 02:58:52;;;;;;;56.17;38.13;;;7.10;96.10;;;;;;6245369;23;20058;-68
2023/02/24 03:01:20;;;;;;;59.13;38.80;;;7.00;95.90;;;;;;6245465;23;20031;-67
2023/02/24 03:03:53;;;;;;;65.37;38.60;;;7.00;95.90;;;;;;6245177;23;20027;-67
2023/02/24 03:06:29;;;;;;;60.97;39.00;;;7.00;95.80;;;;;;6245547;23;20004;-66
2023/02/24 03:08:58;;;;;;;59.10;39.33;;;7.00;95.80;;;;;;6245648;23;20430;-69
2023/02/24 03:11:25;;;;;;;65.70;41.03;;;6.90;95.60;;;;;;6244990;23;20011;-67
2023/02/24 03:13:54;;;;;;;63.60;38.87;;;6.90;95.70;;;;;;6245162;23;20073;-68
2023/02/24 03:16:23;;;;;;;59.90;38.97;;;6.90;95.80;;;;;;6245297;23;20031;-67
2023/02/24 03:18:58;;;;;;;62.03;37.93;;;6.90;95.90;;;;;;6245603;23;20103;-68
2023/02/24 03:21:31;;;;;;;59.33;38.63;;;6.90;95.90;;;;;;6245481;23;20011;-67
2023/02/24 03:23:58;;;;;;;61.43;38.80;;;6.80;95.80;;;;;;6245225;23;20011;-68
2023/02/24 03:26:40;;;;;;;61.37;37.47;;;6.80;95.80;;;;;;6245191;23;20004;-67
2023/02/24 03:29:22;;;;;;;56.53;36.37;;;6.80;95.80;;;;;;6245559;23;20362;-67
2023/02/24 03:31:48;;;;;;;54.10;36.33;;;6.80;95.80;;;;;;6218563;23;20004;-67
2023/02/24 03:34:58;;;;;;;59.43;38.33;;;6.80;95.80;;;;;;6218311;23;20026;-67
2023/02/24 03:37:26;;;;;;;55.50;36.37;;;6.80;95.90;;;;;;6245364;23;20008;-67
2023/02/24 03:39:58;;;;;;;59.70;37.57;;;6.80;96.00;;;;;;6245500;23;20304;-67
2023/02/24 03:42:30;;;;;;;61.07;38.13;;;6.80;96.10;;;;;;6245240;23;20035;-67
2023/02/24 03:44:57;;;;;;;64.63;38.50;;;6.80;96.10;;;;;;6245243;23;20099;-67
2023/02/24 03:47:23;;;;;;;61.47;38.73;;;6.80;96.20;;;;;;6245010;23;20015;-67
2023/02/24 03:49:49;;;;;;;64.30;38.00;;;6.80;96.30;;;;;;6245258;23;20027;-67
2023/02/24 03:52:39;;;;;;;66.57;39.50;;;6.80;96.40;;;;;;6245281;23;20046;-67
2023/02/24 03:55:22;;;;;;;69.90;40.63;;;6.90;96.60;;;;;;6245244;23;20000;-67
2023/02/24 03:58:00;;;;;;;;;;;6.80;96.70;;;;;;6245498;23;19996;-67
2023/02/24 04:00:58;;;;;;;66.90;38.33;;;6.90;96.60;;;;;;6218384;23;19899;-67
2023/02/24 04:03:56;;;;;;;65.53;40.03;;;6.90;96.70;;;;;;6245169;23;19996;-67
2023/02/24 04:06:34;;;;;;;69.47;40.97;;;6.80;96.60;;;;;;6219735;23;20620;-66
2023/02/24 04:09:12;;;;;;;68.10;41.27;;;6.80;96.90;;;;;;6246736;23;20396;-66
2023/02/24 04:11:44;;;;;;;69.27;41.63;;;6.90;97.30;;;;;;6247173;23;20079;-67
2023/02/24 04:14:28;;;;;;;;;;;6.90;97.30;;;;;;6247612;23;20081;-67
2023/02/24 04:17:07;;;;;;;;;;;6.80;97.30;;;;;;6247320;23;19953;-68
2023/02/24 04:19:39;;;;;;;68.90;40.63;;;6.90;97.50;;;;;;6246900;23;19910;-67
2023/02/24 04:22:11;;;;;;;70.60;41.30;;;6.90;97.50;;;;;;6246835;23;20380;-67
2023/02/24 04:24:39;;;;;;;73.78;42.63;;;6.90;97.50;;;;;;6246901;23;20454;-67
2023/02/24 04:27:10;;;;;;;71.57;41.50;;;7.00;97.60;;;;;;6246860;23;19996;-66
2023/02/24 04:29:45;;;;;;;68.80;42.03;;;7.00;97.60;;;;;;6246876;23;20438;-67
2023/02/24 04:32:15;;;;;;;69.27;40.37;;;7.00;97.70;;;;;;6247081;23;19996;-66
2023/02/24 04:34:41;;;;;;;70.93;41.90;;;7.00;97.90;;;;;;6246803;23;20499;-67
2023/02/24 04:37:07;;;;;;;65.70;40.13;;;7.10;97.80;;;;;;6246526;23;20269;-67
2023/02/24 04:39:37;;;;;;;65.10;39.93;;;7.10;97.60;;;;;;6246709;23;20004;-66
2023/02/24 04:42:06;;;;;;;69.33;40.03;;;7.10;97.30;;;;;;6247001;23;20008;-67
2023/02/24 04:44:32;;;;;;;64.47;39.37;;;7.10;97.10;;;;;;6246447;23;20012;-66
2023/02/24 04:46:59;;;;;;;60.97;37.80;;;7.10;97.10;;;;;;6246666;23;20027;-67
2023/02/24 04:49:25;;;;;;;62.13;39.53;;;7.10;97.20;;;;;;6246820;23;20079;-67
2023/02/24 04:51:51;;;;;;;69.20;41.23;;;7.10;97.30;;;;;;6246871;23;20030;-67
2023/02/24 04:54:19;;;;;;;68.37;41.10;;;7.10;97.40;;;;;;6246871;23;20382;-67
2023/02/24 04:56:50;;;;;;;62.80;40.00;;;7.10;97.40;;;;;;6246964;23;19996;-67
2023/02/24 04:59:17;;;;;;;67.37;40.43;;;7.10;97.50;;;;;;6246951;23;20024;-67
2023/02/24 05:01:43;;;;;;;63.57;39.03;;;7.10;97.60;;;;;;6220024;23;20062;-68
2023/02/24 05:04:11;;;;;;;66.60;39.10;;;7.10;97.90;;;;;;6246929;23;20465;-68
2023/02/24 05:06:42;;;;;;;70.23;38.50;;;7.10;97.60;;;;;;6246837;23;20334;-67
2023/02/24 05:09:16;;;;;;;67.00;39.70;;;7.10;97.80;;;;;;6246940;23;20358;-68
2023/02/24 05:11:44;;;;;;;66.47;39.10;;;7.10;97.70;;;;;;6246909;23;20015;-67
2023/02/24 05:14:15;;;;;;;70.37;39.43;;;7.10;97.70;;;;;;6246722;23;20004;-66
2023/02/24 05:16:42;;;;;;;68.47;40.17;;;7.10;97.70;;;;;;6246375;23;20007;-67
2023/02/24 05:21:53;;;;;;;64.53;40.30;;;7.10;97.60;;;;;;6246851;23;20019;-67
2023/02/24 05:24:18;;;;;;;66.50;41.00;;;7.10;97.60;;;;;;6246744;23;20059;-67
2023/02/24 05:26:45;;;;;;;64.23;38.27;;;7.10;97.90;;;;;;6246556;23;20004;-67
2023/02/24 05:29:12;;;;;;;60.17;38.10;;;7.10;97.90;;;;;;6246761;23;20020;-67
2023/02/24 05:31:37;;;;;;;61.27;36.27;;;7.10;97.70;;;;;;6246630;23;20000;-67
2023/02/24 05:34:06;;;;;;;54.33;35.13;;;7.10;97.70;;;;;;6246701;23;20335;-67
2023/02/24 05:36:39;;;;;;;55.23;34.30;;;7.10;97.50;;;;;;6246642;23;20000;-67
2023/02/24 05:39:06;;;;;;;;;;;7.00;97.40;;;;;;6220426;23;20004;-67
2023/02/24 05:41:37;;;;;;;57.63;34.23;;;7.00;97.50;;;;;;6246501;23;19899;-67
2023/02/24 05:44:09;;;;;;;58.30;33.17;;;7.00;97.60;;;;;;6246383;23;20000;-66
2023/02/24 05:46:41;;;;;;;54.95;32.25;;;7.00;97.50;;;;;;6246455;23;20008;-67
2023/02/24 05:49:25;;;;;;;47.10;31.07;;;7.00;97.40;;;;;;6246681;23;20027;-67
2023/02/24 05:51:53;;;;;;;48.37;31.43;;;7.00;97.30;;;;;;6246480;23;19996;-67
2023/02/24 05:54:22;;;;;;;48.23;31.23;;;7.00;97.20;;;;;;6246211;23;20004;-68
2023/02/24 05:56:48;;;;;;;46.70;30.53;;;7.00;97.10;;;;;;6246480;23;19996;-67
2023/02/24 05:59:20;;;;;;;50.90;32.50;;;7.00;97.00;;;;;;6246561;23;20011;-67
2023/02/24 06:01:47;;;;;;;49.22;31.95;;;7.00;97.10;;;;;;6246506;23;20427;-67
2023/02/24 06:04:19;;;;;;;46.73;30.20;;;7.00;97.30;;;;;;6245975;23;20011;-67
2023/02/24 06:06:51;;;;;;;49.65;30.52;;;6.90;97.30;;;;;;6246271;23;20079;-64
2023/02/24 06:09:18;;;;;;;59.23;38.03;;;6.90;97.30;;;;;;6246162;23;20012;-67
2023/02/24 06:11:46;;;;;;;59.83;39.00;;;6.90;97.40;;;;;;6245980;23;20091;-67
2023/02/24 06:14:12;;;;;;;47.67;31.17;;;6.90;97.50;;;;;;6246056;23;20057;-67
2023/02/24 06:16:40;;;;;;;43.33;31.23;;;6.90;97.50;;;;;;6245860;23;20024;-67
2023/02/24 06:19:08;;;;;;;44.97;30.27;;;6.90;97.60;;;;;;6245803;23;20007;-67
2023/02/24 06:21:35;;;;;;;49.90;29.97;;;6.90;97.70;;;;;;6246182;23;19996;-67
2023/02/24 06:24:01;;;;;;;49.63;30.43;;;6.90;97.60;;;;;;6246312;23;20008;-68
2023/02/24 06:26:28;;;;;;;58.10;32.80;;;6.90;97.70;;;;;;6245969;23;20102;-67
2023/02/24 06:28:57;;;;;;;60.40;33.70;;;6.90;97.70;;;;;;6246153;23;20011;-67
2023/02/24 06:31:23;;;;;;;57.53;34.23;;;7.00;97.90;;;;;;6246310;23;20322;-68
2023/02/24 06:33:52;;;;;;;57.93;32.57;;;7.00;97.90;;;;;;6246011;23;20441;-68
2023/02/24 06:36:18;;;;;;;56.63;31.97;;;7.00;98.00;;;;;;6246119;23;20079;-67
2023/02/24 06:38:45;;;;;;;49.80;32.57;;;7.00;98.10;;;;;;6245612;23;20011;-67
2023/02/24 06:41:11;;;;;;;57.77;33.03;;;7.00;98.00;;;;;;6246052;23;20001;-67
2023/02/24 06:43:42;;;;;;;56.90;33.93;;;7.10;98.10;;;;;;6245619;23;20061;-68
2023/02/24 06:46:09;;;;;;;50.07;32.80;;;7.00;98.10;;;;;;6245662;23;20008;-67
2023/02/24 06:48:36;;;;;;;49.00;31.93;;;7.10;98.10;;;;;;6245710;23;20012;-67
2023/02/24 06:51:12;;;;;;;59.90;32.83;;;7.10;98.00;;;;;;6245405;23;20374;-68
2023/02/24 06:53:44;;;;;;;52.43;31.83;;;7.10;98.10;;;;;;6245952;23;20031;-68
2023/02/24 06:56:16;;;;;;;54.42;32.97;;;7.10;98.10;;;;;;6245892;23;20423;-66
2023/02/24 06:58:51;;;;;;;57.67;33.17;;;7.10;98.20;;;;;;6245472;23;20031;-67
2023/02/24 07:01:25;;;;;;;57.13;36.80;;;7.10;98.10;;;;;;6245165;23;20007;-66
2023/02/24 07:04:16;;;;;;;67.60;37.87;;;7.20;98.10;;;;;;6219720;23;20419;-68
2023/02/24 07:06:49;;;;;;;61.67;37.87;;;7.20;98.20;;;;;;6245365;23;20012;-69
2023/02/24 07:09:17;;;;;;;;;;;7.30;98.50;;;;;;6245622;23;20418;-67
2023/02/24 07:11:47;;;;;;;62.10;37.10;;;7.30;98.20;;;;;;6245113;23;19903;-67
2023/02/24 07:14:13;;;;;;;60.60;37.93;;;7.30;98.20;;;;;;6218475;23;20034;-67
2023/02/24 07:16:44;;;;;;;69.10;36.83;;;7.30;98.30;;;;;;6245569;23;20000;-67
2023/02/24 07:19:12;;;;;;;64.33;37.43;;;7.40;98.40;;;;;;6244917;23;20062;-67
2023/02/24 07:21:42;;;;;;;74.20;38.60;;;7.40;98.50;;;;;;6245469;23;20083;-67
2023/02/24 07:24:12;;;;;;;70.30;39.73;;;7.40;98.60;;;;;;6245067;23;20062;-67
2023/02/24 07:26:40;;;;;;;118.30;42.07;;;7.50;98.60;;;;;;6245050;23;20026;-67
2023/02/24 07:29:07;;;;;;;110.00;41.80;;;7.50;98.70;;;;;;6245109;23;20423;-67
2023/02/24 07:31:35;;;;;;;84.27;40.77;;;7.50;98.70;;;;;;6244891;23;20008;-67
2023/02/24 07:34:01;;;;;;;78.87;40.90;;;7.60;98.70;;;;;;6218120;23;20095;-67
2023/02/24 07:36:37;;;;;;;72.80;42.20;;;7.60;98.80;;;;;;6245178;23;20429;-67
2023/02/24 07:39:06;;;;;;;77.10;41.10;;;7.70;98.80;;;;;;6245022;23;20423;-67
2023/02/24 07:41:33;;;;;;;77.70;42.47;;;7.70;98.90;;;;;;6244845;23;20007;-67
2023/02/24 07:44:02;;;;;;;79.07;43.07;;;7.80;99.00;;;;;;6244867;23;20003;-67
2023/02/24 07:46:28;;;;;;;74.63;41.70;;;7.80;99.10;;;;;;6244892;23;20091;-68
2023/02/24 07:48:57;;;;;;;73.87;42.70;;;7.90;99.10;;;;;;6245311;23;20072;-68
2023/02/24 07:51:25;;;;;;;71.80;40.80;;;7.90;99.10;;;;;;6245018;23;20000;-68
2023/02/24 07:53:55;;;;;;;135.00;45.17;;;8.00;99.10;;;;;;6244749;23;20004;-68
2023/02/24 07:56:25;;;;;;;78.53;42.73;;;8.00;99.10;;;;;;6244733;23;20008;-68
2023/02/24 07:58:58;;;;;;;60.10;36.97;;;8.00;99.10;;;;;;6244742;23;20285;-68
2023/02/24 08:01:26;;;;;;;57.15;36.95;;;8.10;99.10;;;;;;6244790;23;20012;-69
2023/02/24 08:04:00;;;;;;;66.10;39.70;;;8.10;98.90;;;;;;6244505;23;20087;-68
2023/02/24 08:06:38;;;;;;;75.83;40.93;;;8.10;98.70;;;;;;6244879;23;20019;-68
2023/02/24 08:09:19;;;;;;;70.57;38.30;;;8.20;98.70;;;;;;6244423;23;19997;-69
2023/02/24 08:11:53;;;;;;;64.57;39.33;;;8.20;98.60;;;;;;6245411;23;20004;-68
2023/02/24 08:14:22;;;;;;;68.33;40.20;;;8.20;98.50;;;;;;6217304;23;20000;-68
2023/02/24 08:16:58;;;;;;;67.40;37.87;;;8.30;98.60;;;;;;6244564;23;20000;-68
2023/02/24 08:19:49;;;;;;;74.17;40.70;;;8.30;98.70;;;;;;6244676;23;20008;-68
2023/02/24 08:22:19;;;;;;;68.00;39.97;;;8.30;98.80;;;;;;6242769;23;20012;-69
2023/02/24 08:24:54;;;;;;;68.23;40.37;;;8.30;98.80;;;;;;6243993;23;20004;-68
2023/02/24 08:27:22;;;;;;;68.43;40.13;;;8.40;98.90;;;;;;6243991;23;20071;-68
2023/02/24 08:30:00;;;;;;;57.13;38.17;;;8.40;99.00;;;;;;6244436;23;20071;-68
2023/02/24 08:32:36;;;;;;;60.87;39.57;;;8.50;98.90;;;;;;6244878;23;20004;-69
2023/02/24 08:35:05;;;;;;;66.00;38.33;;;8.50;98.90;;;;;;6244577;23;20000;-68
2023/02/24 08:37:38;;;;;;;66.43;39.03;;;8.50;98.70;;;;;;6244884;23;20002;-69
2023/02/24 08:40:28;;;;;;;63.03;37.10;;;8.60;98.70;;;;;;6244618;23;20490;-68
2023/02/24 08:42:57;;;;;;;60.77;36.30;;;8.60;98.70;;;;;;6245057;23;20055;-70
2023/02/24 08:45:32;;;;;;;66.77;39.10;;;8.70;98.70;;;;;;6244448;23;20012;-68
2023/02/24 08:47:59;;;;;;;60.60;37.30;;;8.70;98.60;;;;;;6217748;23;20365;-68
2023/02/24 08:50:32;;;;;;;57.90;36.53;;;8.70;98.60;;;;;;6244925;23;20016;-69
2023/02/24 08:52:59;;;;;;;59.30;35.40;;;8.80;98.60;;;;;;6246520;23;20011;-67
2023/02/24 08:55:31;;;;;;;61.67;36.20;;;8.80;98.60;;;;;;6246402;23;20423;-68
2023/02/24 08:58:01;;;;;;;64.87;36.67;;;8.90;98.70;;;;;;6246626;23;20000;-68
2023/02/24 09:00:47;;;;;;;60.23;36.83;;;8.90;98.70;;;;;;6246400;23;20000;-68
2023/02/24 09:03:26;;;;;;;55.13;36.07;;;8.90;98.70;;;;;;6246517;23;20000;-69
2023/02/24 09:06:11;;;;;;;61.07;38.13;;;9.00;98.70;;;;;;6246453;23;20461;-68
2023/02/24 09:08:40;;;;;;;67.20;39.70;;;9.00;98.80;;;;;;6246636;23;20431;-68
2023/02/24 09:11:09;;;;;;;61.00;37.53;;;9.00;98.70;;;;;;6246481;23;20001;-68
2023/02/24 09:13:36;;;;;;;64.33;39.63;;;9.00;98.80;;;;;;6246230;23;20442;-67
2023/02/24 09:16:03;;;;;;;62.80;38.07;;;9.10;98.70;;;;;;6246420;23;20004;-68
2023/02/24 09:18:29;;;;;;;60.37;39.20;;;9.10;98.70;;;;;;6246311;23;20027;-69
2023/02/24 09:21:14;;;;;;;59.37;38.80;;;9.10;98.70;;;;;;6246485;23;20000;-68
2023/02/24 09:23:49;;;;;;;60.53;37.57;;;9.10;98.80;;;;;;6247283;23;19996;-68
2023/02/24 09:26:15;;;;;;;62.10;38.40;;;9.10;98.90;;;;;;6219626;23;20020;-69
2023/02/24 09:28:54;;;;;;;62.43;39.87;;;9.20;98.90;;;;;;6246563;23;20000;-69
2023/02/24 09:31:22;;;;;;;67.30;40.33;;;9.20;98.90;;;;;;6246325;23;20005;-69
2023/02/24 09:33:52;;;;;;;64.87;41.27;;;9.20;98.90;;;;;;6246463;23;20334;-68
2023/02/24 09:36:19;;;;;;;66.57;39.67;;;9.20;98.90;;;;;;6246596;23;20023;-67
2023/02/24 09:41:55;;;;;;;67.37;39.60;;;9.30;98.90;;;;;;6246999;23;20376;-69
2023/02/24 09:44:34;;;;;;;67.77;42.13;;;9.30;99.00;;;;;;6246104;23;20019;-69
2023/02/24 09:47:09;;;;;;;64.17;39.23;;;9.40;99.00;;;;;;6246440;23;20095;-69
2023/02/24 09:49:54;;;;;;;58.07;38.47;;;9.40;98.90;;;;;;6246126;23;20005;-68
2023/02/24 09:52:38;;;;;;;60.03;39.80;;;9.40;98.90;;;;;;6246442;23;20079;-68
2023/02/24 09:55:24;;;;;;;67.97;40.47;;;9.40;98.90;;;;;;6246246;23;20020;-69
2023/02/24 10:01:20;;;;;;;66.57;40.73;;;9.40;98.80;;;;;;6219598;23;20065;-69
2023/02/24 10:04:17;;;;;;;62.07;40.60;;;9.40;98.70;;;;;;6245642;23;20004;-69
2023/02/24 10:07:15;;;;;;;59.03;39.40;;;9.40;98.70;;;;;;6246134;23;20495;-69
2023/02/24 10:09:47;;;;;;;64.33;39.53;;;9.50;98.90;;;;;;6244852;23;20423;-69
2023/02/24 10:12:22;;;;;;;67.85;41.65;;;9.50;98.90;;;;;;6245495;23;20004;-69
2023/02/24 10:15:17;;;;;;;63.23;40.40;;;9.50;98.90;;;;;;6246179;23;20027;-69
2023/02/24 10:17:46;;;;;;;68.10;41.00;;;9.50;98.90;;;;;;6244537;23;20012;-69
2023/02/24 10:23:05;;;;;;;59.53;39.40;;;9.50;99.00;;;;;;6245923;23;20019;-69
2023/02/24 10:25:53;;;;;;;68.40;39.80;;;9.50;99.10;;;;;;6245929;23;20045;-69
2023/02/24 10:28:44;;;;;;;69.07;40.53;;;9.60;99.30;;;;;;6245950;23;20444;-69
2023/02/24 10:31:23;;;;;;;62.90;38.73;;;9.60;99.60;;;;;;6229320;23;20000;-69
2023/02/24 10:33:55;;;;;;;64.73;39.43;;;9.60;99.70;;;;;;6245871;23;20015;-69
2023/02/24 10:36:35;;;;;;;62.50;38.55;;;9.60;99.60;;;;;;6245964;23;20016;-68
2023/02/24 10:39:24;;;;;;;57.13;38.00;;;9.60;99.80;;;;;;6245784;23;20071;-68
2023/02/24 10:42:30;;;;;;;62.33;38.47;;;9.70;99.80;;;;;;6245980;23;20011;-68
2023/02/24 10:45:12;;;;;;;59.20;37.67;;;9.70;99.60;;;;;;6245518;23;20016;-67
2023/02/24 10:47:43;;;;;;;58.47;37.70;;;9.80;99.60;;;;;;6245757;22;20012;-68
2023/02/24 10:50:25;;;;;;;61.13;37.73;;;9.80;99.70;;;;;;6245488;23;20036;-69
2023/02/24 10:58:26;;;;;;;54.20;36.33;;;9.90;99.90;;;;;;6248604;23;20098;-68
2023/02/24 11:01:11;;;;;;;55.83;37.07;;;9.90;99.90;;;;;;6245998;23;20075;-69
2023/02/24 11:03:59;;;;;;;65.15;36.75;;;9.90;99.90;;;;;;6245925;23;20079;-68
2023/02/24 11:17:32;;;;;;;59.00;39.78;;;10.00;99.90;;;;;;6245471;23;20334;-69
2023/02/24 11:20:11;;;;;;;58.75;39.28;;;10.00;99.90;;;;;;6245564;23;20004;-70
2023/02/24 11:22:40;;;;;;;58.27;39.93;;;10.10;99.90;;;;;;6245575;23;20000;-70
2023/02/24 11:25:23;;;;;;;66.40;40.23;;;10.10;99.90;;;;;;6245625;23;20012;-69
2023/02/24 11:27:50;;;;;;;63.53;41.57;;;10.10;99.90;;;;;;6245584;23;20050;-69
2023/02/24 11:30:42;;;;;;;64.17;41.20;;;10.10;99.90;;;;;;6243866;23;20000;-69
2023/02/24 11:33:41;;;;;;;65.70;41.30;;;10.10;99.90;;;;;;6244827;23;20007;-70
2023/02/24 11:36:11;;;;;;;66.07;41.22;;;10.20;99.90;;;;;;6243570;23;20012;-70
2023/02/24 11:38:59;;;;;;;64.85;41.20;;;10.20;99.90;;;;;;6244858;23;20004;-70
2023/02/24 11:41:37;;;;;;;58.33;40.80;;;10.20;99.90;;;;;;6245131;23;20326;-70
2023/02/24 11:44:27;;;;;;;64.07;40.37;;;10.20;99.90;;;;;;6245217;23;20004;-70
2023/02/24 11:46:57;;;;;;;60.90;40.50;;;10.20;99.90;;;;;;6206910;23;20024;-70
2023/02/24 11:49:32;;;;;;;65.57;42.27;;;10.20;99.90;;;;;;6184829;23;20335;-70
2023/02/24 11:52:03;;;;;;;62.20;40.25;;;10.20;99.90;;;;;;6184888;23;20007;-70
2023/02/24 11:54:37;;;;;;;62.20;40.43;;;10.30;99.90;;;;;;6179223;23;20351;-70
2023/02/24 11:57:11;;;;;;;65.13;42.23;;;10.30;99.90;;;;;;6181932;23;20063;-70
2023/02/24 11:59:44;;;;;;;67.80;42.40;;;10.30;99.90;;;;;;6183967;23;20068;-69
2023/02/24 12:02:42;;;;;;;64.38;42.25;;;10.30;99.90;;;;;;6184608;23;20313;-71
2023/02/24 12:05:29;;;;;;;65.37;38.90;;;10.30;99.90;;;;;;6180798;23;20821;-70
2023/02/24 12:08:14;;;;;;;58.88;41.13;;;10.30;99.90;;;;;;6184119;23;20060;-70
2023/02/24 12:10:47;;;;;;;57.25;38.55;;;10.30;99.90;;;;;;6184276;23;19997;-70
2023/02/24 12:13:16;;;;;;;65.38;40.53;;;10.40;99.90;;;;;;6184607;23;20012;-70
2023/02/24 12:15:45;;;;;;;62.00;40.40;;;10.40;99.90;;;;;;6184545;23;19997;-71
2023/02/24 12:18:34;;;;;;;60.00;41.58;;;10.40;99.90;;;;;;6182942;23;20036;-71
2023/02/24 12:21:08;;;;;;;61.97;41.60;;;10.40;99.90;;;;;;6181660;23;20001;-70
2023/02/24 12:23:43;;;;;;;57.00;38.90;;;10.40;99.90;;;;;;6181847;23;20084;-70
2023/02/24 12:26:23;;;;;;;59.60;40.67;;;10.50;99.90;;;;;;6185612;23;20376;-70
2023/02/24 12:28:52;;;;;;;64.07;43.63;;;10.50;99.90;;;;;;6186710;23;20008;-71
2023/02/24 12:31:23;;;;;;;59.53;40.37;;;10.50;99.90;;;;;;6186679;23;20029;-70
2023/02/24 12:34:10;;;;;;;62.80;41.43;;;10.50;99.90;;;;;;6186496;23;20479;-70
2023/02/24 12:37:08;;;;;;;58.75;40.75;;;10.50;99.90;;;;;;6186579;23;20001;-70
2023/02/24 12:40:15;;;;;;;64.38;39.35;;;10.50;99.90;;;;;;6186269;23;20420;-70
2023/02/24 12:43:05;;;;;;;68.28;41.72;;;10.50;99.90;;;;;;6136092;23;20100;-69
2023/02/24 12:46:12;;;;;;;66.55;43.85;;;10.60;99.90;;;;;;6186245;23;20019;-71
2023/02/24 12:49:01;;;;;;;62.15;40.72;;;10.60;99.90;;;;;;6204957;23;20023;-70
2023/02/24 12:51:42;;;;;;;63.45;41.10;;;10.60;99.90;;;;;;6215984;23;20027;-69
2023/02/24 12:54:11;;;;;;;60.85;41.25;;;10.60;99.90;;;;;;6216792;23;20371;-69
2023/02/24 12:57:06;;;;;;;64.65;40.83;;;10.60;99.90;;;;;;6216048;23;20035;-68
2023/02/24 12:59:38;;;;;;;61.53;41.55;;;10.60;99.90;;;;;;6216389;23;20024;-69
2023/02/24 13:02:38;;;;;;;60.08;40.85;;;10.60;99.90;;;;;;6216595;23;20005;-69
2023/02/24 13:05:09;;;;;;;64.68;41.45;;;10.60;99.90;;;;;;6216510;23;20019;-70
2023/02/24 13:07:38;;;;;;;62.85;41.00;;;10.70;99.90;;;;;;6216364;23;20331;-69
2023/02/24 13:10:15;;;;;;;65.45;43.05;;;10.60;99.80;;;;;;6214654;23;20005;-69
2023/02/24 13:12:49;;;;;;;66.45;43.97;;;10.70;99.90;;;;;;6216169;23;20012;-69
2023/02/24 13:15:24;;;;;;;69.50;44.63;;;10.70;99.80;;;;;;6216575;23;20001;-69
2023/02/24 13:17:50;;;;;;;75.53;45.67;;;10.70;99.70;;;;;;6215913;23;20008;-70
2023/02/24 13:20:25;;;;;;;73.22;46.65;;;10.70;99.50;;;;;;6216522;23;20001;-68
2023/02/24 13:22:51;;;;;;;73.05;45.38;;;10.70;99.40;;;;;;6213675;23;20076;-69
2023/02/24 13:25:22;;;;;;;73.72;45.47;;;10.70;99.30;;;;;;6213366;23;20044;-72
2023/02/24 13:27:58;;;;;;;69.00;45.40;;;10.70;99.50;;;;;;6214555;23;20040;-70
2023/02/24 13:30:26;;;;;;;72.32;46.17;;;10.70;99.20;;;;;;6239678;23;20004;-69
2023/02/24 13:33:20;;;;;;;69.15;45.92;;;10.70;99.10;;;;;;6215767;23;19996;-69
2023/02/24 13:35:49;;;;;;;71.82;46.53;;;10.70;99.10;;;;;;6182148;23;20035;-69
2023/02/24 13:38:25;;;;;;;71.20;46.45;;;10.70;99.00;;;;;;6215541;23;20000;-70
2023/02/24 13:40:51;;;;;;;73.85;47.83;;;10.70;99.00;;;;;;6215955;23;20005;-70